Time;durP1;ratioP1;P1;durP2;ratioP2;P2;SDS_P1;SDS_P2;PMS_P1;PMS_P2;Temp;Humidity;BMP_temperature;BMP_pressure;BME280_temperature;BME280_humidity;BME280_pressure;Samples;Min_cycle;Max_cycle;Signal;HPM_P1;HPM_P2
2021/01/29 00:00:59;;;;;;;19.58;12.55;;;7.30;99.90;;;;;;5017956;28;20247;-79
2021/01/29 00:03:28;;;;;;;20.60;12.57;;;7.30;99.90;;;;;;5002258;28;20191;-79
2021/01/29 00:05:58;;;;;;;20.17;11.73;;;7.30;99.90;;;;;;4998276;28;20676;-79
2021/01/29 00:08:28;;;;;;;20.27;12.10;;;7.40;99.90;;;;;;5012401;28;20198;-79
2021/01/29 00:10:54;;;;;;;20.08;11.75;;;7.40;99.90;;;;;;5005964;28;20716;-79
2021/01/29 00:13:25;;;;;;;22.52;12.63;;;7.40;99.90;;;;;;5019633;28;20240;-79
2021/01/29 00:15:54;;;;;;;21.38;12.00;;;7.30;99.90;;;;;;5025904;28;20181;-80
2021/01/29 00:18:25;;;;;;;20.90;12.38;;;7.40;99.90;;;;;;5013944;28;20519;-79
2021/01/29 00:20:54;;;;;;;20.20;12.85;;;7.40;99.90;;;;;;5015490;28;20683;-79
2021/01/29 00:23:21;;;;;;;21.90;13.40;;;7.50;99.90;;;;;;5016045;28;20643;-79
2021/01/29 00:25:51;;;;;;;20.17;11.95;;;7.40;99.90;;;;;;5007362;28;20190;-79
2021/01/29 00:28:18;;;;;;;17.38;10.85;;;7.50;99.90;;;;;;4998911;28;20181;-79
2021/01/29 00:30:46;;;;;;;26.20;12.15;;;7.50;99.90;;;;;;5036093;28;20225;-79
2021/01/29 00:33:14;;;;;;;18.30;11.65;;;7.50;99.90;;;;;;5023086;28;20182;-80
2021/01/29 00:35:43;;;;;;;17.50;11.75;;;7.60;99.90;;;;;;5007551;28;20185;-79
2021/01/29 00:38:12;;;;;;;24.77;11.63;;;7.60;99.90;;;;;;5006214;28;20177;-79
2021/01/29 00:40:41;;;;;;;19.98;10.60;;;7.60;99.90;;;;;;5004118;28;20210;-79
2021/01/29 00:43:08;;;;;;;21.48;11.50;;;7.70;99.90;;;;;;5016939;28;20336;-79
2021/01/29 00:45:36;;;;;;;23.70;10.32;;;7.70;99.90;;;;;;5009581;28;20329;-79
2021/01/29 00:48:04;;;;;;;21.63;10.25;;;7.80;99.90;;;;;;4996536;28;20218;-79
2021/01/29 00:50:35;;;;;;;20.73;10.80;;;7.80;99.90;;;;;;5001573;28;20194;-79
2021/01/29 00:53:04;;;;;;;16.80;10.93;;;7.80;99.90;;;;;;5016099;28;20174;-79
2021/01/29 00:55:31;;;;;;;22.20;10.38;;;7.80;99.90;;;;;;4977006;28;20179;-79
2021/01/29 00:58:03;;;;;;;20.52;10.57;;;7.80;99.90;;;;;;5013969;28;20205;-79
2021/01/29 01:00:50;;;;;;;15.88;9.38;;;7.90;99.90;;;;;;5006639;28;20239;-79
2021/01/29 01:03:24;;;;;;;21.08;10.77;;;7.90;99.90;;;;;;5015833;28;20275;-79
2021/01/29 01:05:53;;;;;;;23.00;10.43;;;7.90;99.90;;;;;;5008739;28;20532;-79
2021/01/29 01:08:30;;;;;;;21.50;10.55;;;7.90;99.90;;;;;;5007106;28;20181;-79
2021/01/29 01:11:23;;;;;;;20.55;10.80;;;7.90;99.90;;;;;;5014031;28;20221;-80
2021/01/29 01:14:05;;;;;;;23.70;9.77;;;7.90;99.90;;;;;;5029659;28;20197;-79
2021/01/29 01:16:44;;;;;;;22.52;10.85;;;7.90;99.90;;;;;;5019103;28;20209;-79
2021/01/29 01:19:30;;;;;;;21.10;12.32;;;7.90;99.90;;;;;;5015825;28;20218;-79
2021/01/29 01:22:06;;;;;;;18.83;9.47;;;8.00;99.90;;;;;;5011579;28;20204;-79
2021/01/29 01:25:00;;;;;;;18.55;9.70;;;8.00;99.90;;;;;;5009575;28;20438;-79
2021/01/29 01:27:31;;;;;;;24.85;10.90;;;8.00;99.90;;;;;;5015561;28;20204;-79
2021/01/29 01:30:21;;;;;;;20.50;10.50;;;8.00;99.90;;;;;;4997182;28;20229;-80
2021/01/29 01:32:48;;;;;;;18.05;9.90;;;8.10;99.90;;;;;;4998022;28;20175;-80
2021/01/29 01:35:34;;;;;;;22.02;10.25;;;8.10;99.90;;;;;;5015062;28;20177;-80
2021/01/29 01:38:00;;;;;;;25.25;11.07;;;8.10;99.90;;;;;;5031420;28;20186;-79
2021/01/29 01:40:40;;;;;;;26.08;11.48;;;8.00;99.90;;;;;;5015116;28;20184;-79
2021/01/29 01:43:13;;;;;;;20.48;9.82;;;8.10;99.90;;;;;;5010328;28;20589;-79
2021/01/29 01:46:08;;;;;;;18.90;10.10;;;8.00;99.90;;;;;;5008617;28;20192;-80
2021/01/29 01:49:02;;;;;;;25.95;10.23;;;8.10;99.90;;;;;;5027435;28;20579;-80
2021/01/29 01:52:06;;;;;;;19.98;10.85;;;8.10;99.90;;;;;;5001512;28;20343;-80
2021/01/29 01:55:08;;;;;;;25.67;11.50;;;8.10;99.90;;;;;;5030151;28;20170;-80
2021/01/29 01:57:44;;;;;;;29.42;11.52;;;8.10;99.90;;;;;;5014593;28;20430;-79
2021/01/29 02:00:21;;;;;;;26.95;11.10;;;8.20;99.90;;;;;;5029608;28;20528;-80
2021/01/29 02:03:19;;;;;;;19.63;10.55;;;8.20;99.90;;;;;;5014845;28;20178;-80
2021/01/29 02:05:55;;;;;;;23.95;11.57;;;8.20;99.90;;;;;;5014463;28;20261;-79
2021/01/29 02:08:53;;;;;;;25.13;12.13;;;8.20;99.90;;;;;;4996377;28;20554;-79
2021/01/29 02:11:41;;;;;;;26.90;10.68;;;8.30;99.90;;;;;;5006928;28;20220;-79
2021/01/29 02:14:21;;;;;;;24.23;10.60;;;8.30;99.90;;;;;;5047199;28;20631;-79
2021/01/29 02:17:35;;;;;;;25.75;10.80;;;8.20;99.90;;;;;;5014182;28;20178;-79
2021/01/29 02:20:42;;;;;;;21.80;9.90;;;8.30;99.90;;;;;;5014777;28;20229;-79
2021/01/29 02:23:29;;;;;;;18.60;10.63;;;8.30;99.90;;;;;;4994712;28;20182;-79
2021/01/29 02:26:41;;;;;;;16.92;9.10;;;8.30;99.90;;;;;;5001889;28;20616;-79
2021/01/29 02:29:29;;;;;;;18.85;10.35;;;8.30;99.90;;;;;;5013967;28;20170;-79
2021/01/29 02:32:13;;;;;;;20.15;10.05;;;8.30;99.90;;;;;;4987695;28;20218;-79
2021/01/29 02:35:30;;;;;;;14.05;9.73;;;8.20;99.90;;;;;;5005114;28;20376;-79
2021/01/29 02:38:45;;;;;;;22.27;11.02;;;8.30;99.90;;;;;;5011707;28;20521;-79
2021/01/29 02:41:36;;;;;;;25.10;12.30;;;8.30;99.90;;;;;;5002862;28;20178;-79
2021/01/29 02:44:30;;;;;;;17.50;11.70;;;8.30;99.90;;;;;;5013238;28;20217;-79
2021/01/29 02:47:44;;;;;;;17.98;10.52;;;8.30;99.90;;;;;;5013332;28;20192;-79
2021/01/29 02:50:22;;;;;;;17.80;10.20;;;8.30;99.90;;;;;;5014008;28;20197;-79
2021/01/29 02:53:42;;;;;;;18.00;10.88;;;8.30;99.90;;;;;;4977848;28;20723;-78
2021/01/29 02:56:38;;;;;;;21.20;10.43;;;8.30;99.90;;;;;;5000795;28;20221;-79
2021/01/29 02:59:59;;;;;;;19.73;10.68;;;8.30;99.90;;;;;;4994637;28;20174;-79
2021/01/29 03:02:53;;;;;;;16.25;10.73;;;8.30;99.90;;;;;;4995073;28;20186;-79
2021/01/29 03:05:41;;;;;;;12.50;9.05;;;8.30;99.90;;;;;;4997518;28;20174;-79
2021/01/29 03:08:24;;;;;;;10.73;7.85;;;8.30;99.90;;;;;;4994065;28;20179;-79
2021/01/29 03:11:20;;;;;;;10.43;7.53;;;8.30;99.90;;;;;;4994719;28;20253;-79
2021/01/29 03:14:18;;;;;;;12.10;7.30;;;8.40;99.90;;;;;;5022905;28;20266;-80
2021/01/29 03:17:14;;;;;;;13.50;7.68;;;8.40;99.90;;;;;;4994908;28;20193;-79
2021/01/29 03:20:16;;;;;;;17.42;8.00;;;8.30;99.90;;;;;;4996818;28;20606;-80
2021/01/29 03:23:26;;;;;;;14.15;8.00;;;8.30;99.90;;;;;;4994595;28;20494;-80
2021/01/29 03:26:36;;;;;;;16.65;7.07;;;8.30;99.90;;;;;;4972710;28;20194;-80
2021/01/29 03:29:37;;;;;;;11.25;7.85;;;8.30;99.90;;;;;;4986422;28;20222;-80
2021/01/29 03:32:24;;;;;;;14.45;7.85;;;8.40;99.90;;;;;;4995013;28;20214;-80
2021/01/29 03:35:36;;;;;;;10.93;7.30;;;8.40;99.90;;;;;;4978536;28;20182;-80
2021/01/29 03:38:35;;;;;;;14.07;7.95;;;8.40;99.90;;;;;;4994306;28;20187;-80
2021/01/29 03:41:22;;;;;;;12.88;8.20;;;8.30;99.90;;;;;;5002129;28;20205;-80
2021/01/29 03:44:14;;;;;;;15.85;8.63;;;8.40;99.90;;;;;;5013859;28;20284;-80
2021/01/29 03:47:08;;;;;;;18.13;9.15;;;8.40;99.90;;;;;;5001251;28;20187;-80
2021/01/29 03:50:07;;;;;;;18.70;10.85;;;8.40;99.90;;;;;;4997612;28;20248;-79
2021/01/29 03:53:07;;;;;;;22.35;10.35;;;8.40;99.90;;;;;;5012671;28;20178;-80
2021/01/29 03:56:22;;;;;;;23.02;11.57;;;8.40;99.90;;;;;;5016628;28;20725;-79
2021/01/29 03:59:38;;;;;;;20.38;10.95;;;8.40;99.90;;;;;;5006645;28;20305;-80
2021/01/29 04:02:34;;;;;;;22.98;12.25;;;8.40;99.90;;;;;;4994563;28;20186;-79
2021/01/29 04:05:44;;;;;;;21.67;10.75;;;8.40;99.90;;;;;;5014360;28;20189;-79
2021/01/29 04:08:40;;;;;;;23.08;11.60;;;8.50;99.90;;;;;;5024378;28;20194;-79
2021/01/29 04:11:34;;;;;;;22.63;10.40;;;8.50;99.90;;;;;;4996969;28;20381;-79
2021/01/29 04:14:31;;;;;;;20.02;11.23;;;8.60;99.90;;;;;;5011793;28;20194;-79
2021/01/29 04:17:04;;;;;;;22.83;10.65;;;8.60;99.90;;;;;;5012975;28;20174;-79
2021/01/29 04:19:34;;;;;;;18.67;11.15;;;8.50;99.90;;;;;;5009555;28;20229;-80
2021/01/29 04:22:13;;;;;;;24.50;11.27;;;8.60;99.90;;;;;;5017070;28;20226;-80
2021/01/29 04:24:57;;;;;;;15.93;11.05;;;8.50;99.90;;;;;;4999275;28;20198;-80
2021/01/29 04:27:31;;;;;;;18.83;10.85;;;8.60;99.90;;;;;;5017224;28;20239;-82
2021/01/29 04:30:09;;;;;;;17.67;11.70;;;8.60;99.90;;;;;;5016102;28;20686;-82
2021/01/29 04:32:42;;;;;;;21.45;11.82;;;8.60;99.90;;;;;;5015327;28;20177;-82
2021/01/29 04:35:15;;;;;;;17.98;9.95;;;8.70;99.90;;;;;;5016195;28;20233;-82
2021/01/29 04:38:02;;;;;;;17.27;10.90;;;8.70;99.90;;;;;;4998557;28;20179;-81
2021/01/29 04:40:47;;;;;;;17.70;10.70;;;8.70;99.90;;;;;;4996498;28;20186;-81
2021/01/29 04:43:45;;;;;;;14.40;9.65;;;8.70;99.90;;;;;;5001695;28;20810;-82
2021/01/29 04:46:52;;;;;;;18.03;10.97;;;8.70;99.90;;;;;;5009941;28;20527;-81
2021/01/29 04:50:14;;;;;;;19.48;10.35;;;8.70;99.90;;;;;;4995938;28;20425;-81
2021/01/29 04:52:48;;;;;;;23.23;10.07;;;8.70;99.90;;;;;;4976867;28;20190;-82
2021/01/29 04:55:29;;;;;;;16.58;9.82;;;8.70;99.90;;;;;;5003865;28;20897;-82
2021/01/29 04:58:13;;;;;;;11.95;9.50;;;8.70;99.90;;;;;;5012268;28;20182;-82
2021/01/29 05:01:35;;;;;;;14.07;9.17;;;8.70;99.90;;;;;;5005850;28;20193;-82
2021/01/29 05:04:54;;;;;;;12.25;8.63;;;8.80;99.90;;;;;;5007822;28;20445;-82
2021/01/29 05:07:45;;;;;;;10.73;8.13;;;8.80;99.90;;;;;;4994739;28;20631;-82
2021/01/29 05:10:55;;;;;;;13.35;9.80;;;8.80;99.90;;;;;;4997274;28;20281;-82
2021/01/29 05:14:01;;;;;;;13.93;8.80;;;8.90;99.90;;;;;;5016926;28;20244;-81
2021/01/29 05:16:58;;;;;;;14.75;9.05;;;8.90;99.90;;;;;;5011783;28;20179;-81
2021/01/29 05:19:55;;;;;;;12.20;9.00;;;8.90;99.90;;;;;;5003768;28;20291;-81
2021/01/29 05:22:56;;;;;;;12.68;8.95;;;8.90;99.90;;;;;;5010267;28;20197;-82
2021/01/29 05:25:39;;;;;;;14.43;8.35;;;8.90;99.90;;;;;;5001046;28;20182;-82
2021/01/29 05:28:36;;;;;;;17.43;8.90;;;8.90;99.90;;;;;;5026964;28;20291;-82
2021/01/29 05:31:58;;;;;;;14.33;9.07;;;8.90;99.90;;;;;;5015141;28;20471;-82
2021/01/29 05:35:08;;;;;;;14.10;10.93;;;8.90;99.90;;;;;;5011704;28;20436;-81
2021/01/29 05:37:58;;;;;;;15.10;11.57;;;8.90;99.90;;;;;;4942370;28;20848;-82
2021/01/29 05:40:36;;;;;;;15.67;11.10;;;8.80;99.90;;;;;;4955179;29;20438;-82
2021/01/29 05:43:25;;;;;;;18.30;10.73;;;8.90;99.90;;;;;;4961185;28;20450;-82
2021/01/29 05:45:51;;;;;;;14.27;11.13;;;8.80;99.90;;;;;;4958130;28;20555;-82
2021/01/29 05:48:55;;;;;;;11.87;9.87;;;8.80;99.90;;;;;;4960427;28;20431;-82
2021/01/29 05:51:39;;;;;;;15.37;9.10;;;8.80;99.90;;;;;;4908448;29;20500;-82
2021/01/29 05:54:35;;;;;;;13.70;9.40;;;8.90;99.90;;;;;;4916719;29;20767;-82
2021/01/29 05:57:25;;;;;;;20.20;12.02;;;8.90;99.90;;;;;;4946060;28;20467;-82
2021/01/29 06:00:18;;;;;;;13.80;10.47;;;8.90;99.90;;;;;;4969052;28;20442;-82
2021/01/29 06:03:02;;;;;;;16.03;9.70;;;9.00;99.90;;;;;;4939016;29;20431;-82
2021/01/29 06:05:46;;;;;;;11.73;8.93;;;9.10;99.90;;;;;;4942762;29;20971;-82
2021/01/29 06:08:52;;;;;;;11.80;9.23;;;9.10;99.90;;;;;;4992220;28;20792;-82
2021/01/29 06:11:49;;;;;;;19.05;9.75;;;9.00;99.90;;;;;;5011110;28;20965;-82
2021/01/29 06:14:43;;;;;;;17.20;10.40;;;9.00;99.90;;;;;;5003182;28;20202;-82
2021/01/29 06:17:30;;;;;;;13.05;8.82;;;9.00;99.90;;;;;;5001800;28;20499;-82
2021/01/29 06:20:11;;;;;;;13.98;9.55;;;9.00;99.90;;;;;;4996733;28;20221;-82
2021/01/29 06:23:11;;;;;;;15.60;8.13;;;9.00;99.90;;;;;;5005886;28;20197;-85
2021/01/29 06:25:40;;;;;;;13.68;7.40;;;9.00;99.90;;;;;;5006173;28;20450;-83
2021/01/29 06:28:37;;;;;;;9.77;6.13;;;9.00;99.90;;;;;;4967407;28;20624;-82
2021/01/29 06:31:57;;;;;;;6.32;4.45;;;9.00;99.90;;;;;;4995163;28;20469;-82
2021/01/29 06:34:55;;;;;;;5.72;4.35;;;9.00;99.90;;;;;;5005048;28;20252;-83
2021/01/29 06:37:47;;;;;;;5.43;4.72;;;9.10;99.90;;;;;;5012663;28;20217;-83
2021/01/29 06:40:28;;;;;;;4.97;3.88;;;9.10;99.90;;;;;;5015353;28;20627;-83
2021/01/29 06:43:12;;;;;;;6.10;4.25;;;9.10;99.90;;;;;;5013472;28;20530;-84
2021/01/29 06:45:40;;;;;;;5.07;3.23;;;9.10;99.90;;;;;;5008149;28;20580;-83
2021/01/29 06:48:25;;;;;;;5.45;4.22;;;9.20;99.90;;;;;;4995437;28;20496;-83
2021/01/29 06:51:30;;;;;;;3.87;3.20;;;9.20;99.90;;;;;;4984907;28;20202;-82
2021/01/29 06:54:29;;;;;;;5.43;3.50;;;9.10;99.90;;;;;;5007317;28;20424;-83
2021/01/29 06:57:21;;;;;;;8.45;4.30;;;9.20;99.90;;;;;;4999492;28;20207;-83
2021/01/29 07:00:15;;;;;;;4.70;4.10;;;9.20;99.90;;;;;;5010961;28;20615;-90
2021/01/29 07:03:23;;;;;;;6.50;4.30;;;9.20;99.90;;;;;;4993514;28;20182;-82
2021/01/29 07:06:01;;;;;;;6.97;5.78;;;9.20;99.90;;;;;;5012458;28;20475;-90
2021/01/29 07:08:54;;;;;;;7.35;6.07;;;9.10;99.90;;;;;;4999386;28;20158;-89
2021/01/29 07:11:44;;;;;;;7.43;6.33;;;9.20;99.90;;;;;;5014294;28;20682;-89
2021/01/29 07:14:58;;;;;;;9.33;6.60;;;9.10;99.90;;;;;;5014250;28;20424;-90
2021/01/29 07:18:04;;;;;;;8.80;7.05;;;9.10;99.90;;;;;;4998482;28;20432;-90
2021/01/29 07:21:06;;;;;;;10.97;6.90;;;9.10;99.90;;;;;;5005597;28;20213;-81
2021/01/29 07:23:58;;;;;;;12.25;8.02;;;9.10;99.90;;;;;;5011267;28;20436;-82
2021/01/29 07:26:59;;;;;;;9.10;6.90;;;9.10;99.90;;;;;;4991925;28;20190;-81
2021/01/29 07:29:51;;;;;;;10.85;7.72;;;9.10;99.90;;;;;;5016481;28;20444;-90
2021/01/29 07:32:41;;;;;;;10.00;8.15;;;9.00;99.90;;;;;;5029062;28;20608;-88
2021/01/29 07:35:25;;;;;;;10.10;8.18;;;9.00;99.90;;;;;;5003773;28;20174;-83
2021/01/29 07:38:18;;;;;;;10.23;8.60;;;9.00;99.90;;;;;;5027785;28;20185;-84
2021/01/29 07:41:08;;;;;;;12.20;9.32;;;9.00;99.90;;;;;;5023375;28;20275;-85
2021/01/29 07:44:05;;;;;;;13.98;9.20;;;9.10;99.90;;;;;;5025179;28;20220;-87
2021/01/29 07:47:08;;;;;;;12.25;9.93;;;9.20;99.90;;;;;;5023847;28;20250;-88
2021/01/29 07:49:55;;;;;;;15.60;10.15;;;9.20;99.90;;;;;;5011116;28;20236;-88
2021/01/29 07:52:24;;;;;;;13.47;10.30;;;9.10;99.90;;;;;;5022688;28;20280;-85
2021/01/29 07:55:22;;;;;;;13.10;10.17;;;9.20;99.90;;;;;;5011024;28;20447;-84
2021/01/29 07:58:00;;;;;;;14.70;10.90;;;9.10;99.90;;;;;;5006026;28;20429;-85
2021/01/29 08:00:54;;;;;;;13.18;10.85;;;9.20;99.90;;;;;;5017057;28;20195;-85
2021/01/29 08:03:43;;;;;;;13.30;9.45;;;9.20;99.90;;;;;;5015808;28;20212;-85
2021/01/29 08:06:28;;;;;;;9.82;7.50;;;9.20;99.90;;;;;;5029518;28;20224;-85
2021/01/29 08:09:02;;;;;;;10.37;7.37;;;9.20;99.90;;;;;;4999326;28;20646;-84
2021/01/29 08:11:35;;;;;;;8.90;7.60;;;9.20;99.90;;;;;;5025606;28;20846;-84
2021/01/29 08:14:20;;;;;;;11.70;7.70;;;9.20;99.90;;;;;;5020360;28;20441;-90
2021/01/29 08:17:06;;;;;;;9.73;7.33;;;9.20;99.90;;;;;;5014128;28;20185;-84
2021/01/29 08:19:52;;;;;;;12.77;7.33;;;9.20;99.90;;;;;;5032403;28;20982;-85
2021/01/29 08:22:58;;;;;;;15.18;8.77;;;9.20;99.90;;;;;;5022106;28;20436;-82
2021/01/29 08:25:40;;;;;;;15.90;7.87;;;9.20;99.90;;;;;;5022772;28;20193;-82
2021/01/29 08:28:34;;;;;;;12.33;8.40;;;9.30;99.90;;;;;;5019929;28;20432;-81
2021/01/29 08:31:17;;;;;;;13.50;7.33;;;9.30;99.90;;;;;;5017696;28;20944;-81
2021/01/29 08:34:16;;;;;;;16.40;7.90;;;9.20;99.90;;;;;;5014080;28;20448;-81
2021/01/29 08:37:07;;;;;;;12.35;8.25;;;9.30;99.90;;;;;;5014470;28;20428;-81
2021/01/29 08:39:43;;;;;;;19.50;8.95;;;9.30;99.90;;;;;;5007894;28;20179;-80
2021/01/29 08:42:44;;;;;;;15.73;8.75;;;9.30;99.90;;;;;;5011795;28;20200;-80
2021/01/29 08:45:33;;;;;;;19.00;9.80;;;9.30;99.90;;;;;;5023701;28;20377;-81
2021/01/29 08:48:33;;;;;;;17.42;8.85;;;9.30;99.90;;;;;;5030766;28;20180;-81
2021/01/29 08:51:26;;;;;;;13.27;9.80;;;9.30;99.90;;;;;;5022300;28;20684;-81
2021/01/29 08:54:19;;;;;;;25.50;9.67;;;9.30;99.90;;;;;;5008142;28;20430;-82
2021/01/29 08:57:22;;;;;;;20.20;10.23;;;9.30;99.90;;;;;;5006119;28;20525;-82
2021/01/29 08:59:54;;;;;;;25.03;9.00;;;9.30;99.90;;;;;;5006710;28;20433;-83
2021/01/29 09:02:50;;;;;;;22.97;9.63;;;9.30;99.90;;;;;;5017048;28;20443;-81
2021/01/29 09:05:27;;;;;;;21.33;8.90;;;9.40;99.90;;;;;;5015672;28;20842;-81
2021/01/29 09:08:06;;;;;;;20.30;8.90;;;9.30;99.90;;;;;;5015076;28;20814;-83
2021/01/29 09:10:54;;;;;;;19.58;8.63;;;9.30;99.90;;;;;;5013633;28;20459;-82
2021/01/29 09:13:26;;;;;;;27.05;9.25;;;9.30;99.90;;;;;;5028301;28;20178;-80
2021/01/29 09:16:10;;;;;;;25.63;10.87;;;9.30;99.90;;;;;;5004508;28;20190;-81
2021/01/29 09:18:49;;;;;;;18.83;9.57;;;9.30;99.90;;;;;;5023408;28;20925;-82
2021/01/29 09:21:18;;;;;;;15.70;8.98;;;9.30;99.90;;;;;;5006505;28;20441;-80
2021/01/29 09:24:01;;;;;;;22.90;9.23;;;9.30;99.90;;;;;;5019350;28;20185;-81
2021/01/29 09:27:10;;;;;;;24.70;8.93;;;9.30;99.90;;;;;;4991076;28;20786;-79
2021/01/29 09:29:57;;;;;;;21.20;8.80;;;9.20;99.90;;;;;;5021565;28;20815;-79
2021/01/29 09:32:51;;;;;;;21.57;9.00;;;9.30;99.90;;;;;;5034028;28;20228;-79
2021/01/29 09:35:33;;;;;;;24.60;10.87;;;9.20;99.90;;;;;;5023966;28;20433;-79
2021/01/29 09:38:10;;;;;;;20.98;8.35;;;9.10;99.90;;;;;;5020657;28;20817;-79
2021/01/29 09:41:23;;;;;;;29.23;7.97;;;9.10;99.90;;;;;;4994984;28;20193;-80
2021/01/29 09:44:05;;;;;;;19.13;7.75;;;9.20;99.90;;;;;;4996224;28;20464;-82
2021/01/29 09:46:38;;;;;;;21.40;8.77;;;9.10;99.90;;;;;;5039335;28;20190;-84
2021/01/29 09:49:17;;;;;;;21.60;7.80;;;9.10;99.90;;;;;;5011473;28;20439;-84
2021/01/29 09:51:55;;;;;;;24.02;8.27;;;9.00;99.90;;;;;;5030874;28;20204;-83
2021/01/29 09:54:33;;;;;;;16.38;6.93;;;9.00;99.90;;;;;;5014007;28;20278;-81
2021/01/29 09:57:26;;;;;;;22.63;9.13;;;9.20;99.90;;;;;;5013848;28;20246;-80
2021/01/29 10:00:21;;;;;;;19.58;7.95;;;9.20;99.90;;;;;;5012594;28;20293;-80
2021/01/29 10:02:58;;;;;;;31.63;9.70;;;9.20;99.90;;;;;;5027471;28;20205;-81
2021/01/29 10:05:28;;;;;;;21.17;7.95;;;9.20;99.90;;;;;;5011586;28;20194;-81
2021/01/29 10:08:07;;;;;;;22.55;7.45;;;9.20;99.90;;;;;;5017251;28;20270;-83
2021/01/29 10:10:44;;;;;;;19.70;8.18;;;9.30;99.90;;;;;;5015049;28;20249;-83
2021/01/29 10:13:15;;;;;;;22.07;7.80;;;9.40;99.90;;;;;;5007887;28;20199;-83
2021/01/29 10:16:05;;;;;;;18.58;6.60;;;9.40;99.90;;;;;;5022703;28;20639;-82
2021/01/29 10:18:38;;;;;;;16.30;8.23;;;9.60;99.90;;;;;;5028216;28;20346;-81
2021/01/29 10:21:18;;;;;;;19.90;7.10;;;9.60;99.90;;;;;;5025913;28;20298;-80
2021/01/29 10:23:54;;;;;;;18.08;6.20;;;9.70;99.90;;;;;;5010985;28;20197;-79
2021/01/29 10:26:34;;;;;;;19.67;5.60;;;9.70;99.90;;;;;;5025905;28;20204;-79
2021/01/29 10:29:22;;;;;;;17.65;5.75;;;9.70;99.90;;;;;;5022715;28;20457;-79
2021/01/29 10:32:22;;;;;;;19.65;6.40;;;9.60;99.90;;;;;;5017941;28;20218;-78
2021/01/29 10:35:14;;;;;;;21.13;6.77;;;9.70;99.90;;;;;;5004665;28;20548;-78
2021/01/29 10:38:05;;;;;;;21.40;6.77;;;9.80;99.90;;;;;;5007186;28;20901;-78
2021/01/29 10:40:40;;;;;;;13.10;6.33;;;9.80;99.90;;;;;;5023267;28;20436;-79
2021/01/29 10:43:30;;;;;;;18.27;6.50;;;9.80;99.90;;;;;;5004381;28;22050;-78
2021/01/29 10:46:08;;;;;;;18.93;6.20;;;9.90;99.90;;;;;;5015061;28;20436;-81
2021/01/29 10:48:45;;;;;;;18.33;5.43;;;9.80;99.90;;;;;;5001146;28;20440;-80
2021/01/29 10:51:26;;;;;;;21.47;6.70;;;9.90;99.90;;;;;;5018433;28;20475;-80
2021/01/29 10:54:01;;;;;;;19.90;6.90;;;9.90;99.90;;;;;;5016413;28;20435;-79
2021/01/29 10:56:40;;;;;;;15.77;5.90;;;9.90;99.90;;;;;;5025447;28;20912;-79
2021/01/29 10:59:49;;;;;;;22.27;6.60;;;10.00;99.90;;;;;;5006937;28;20441;-78
2021/01/29 11:02:32;;;;;;;23.70;7.03;;;10.10;99.90;;;;;;5007663;28;20496;-80
2021/01/29 11:05:13;;;;;;;22.67;6.40;;;10.20;99.90;;;;;;5022079;28;20432;-80
2021/01/29 11:07:48;;;;;;;15.37;6.10;;;10.30;99.90;;;;;;5009797;28;20421;-81
2021/01/29 11:10:30;;;;;;;14.37;6.13;;;10.40;99.90;;;;;;5016443;28;20539;-81
2021/01/29 11:13:21;;;;;;;18.07;6.30;;;10.40;99.90;;;;;;5012454;28;20560;-79
2021/01/29 11:16:01;;;;;;;26.70;6.87;;;10.50;99.90;;;;;;5011576;28;20920;-79
2021/01/29 11:18:35;;;;;;;19.10;5.77;;;10.60;99.90;;;;;;5012209;28;20455;-80
2021/01/29 11:21:12;;;;;;;26.40;6.43;;;10.60;99.90;;;;;;5017530;28;20782;-80
2021/01/29 11:23:56;;;;;;;18.10;6.30;;;10.60;99.90;;;;;;5008216;28;20444;-79
2021/01/29 11:26:53;;;;;;;13.90;5.30;;;10.60;99.90;;;;;;5012112;28;20440;-79
2021/01/29 11:29:39;;;;;;;14.57;5.60;;;10.60;99.90;;;;;;5009082;28;20435;-81
2021/01/29 11:32:25;;;;;;;13.03;5.80;;;10.60;99.90;;;;;;5005977;28;20453;-81
2021/01/29 11:35:13;;;;;;;18.93;6.27;;;10.60;99.90;;;;;;5006008;28;20994;-81
2021/01/29 11:38:12;;;;;;;15.53;6.27;;;10.60;99.90;;;;;;5018653;28;20428;-81
2021/01/29 11:40:56;;;;;;;19.30;6.45;;;10.60;99.90;;;;;;5006961;28;20441;-82
2021/01/29 11:43:57;;;;;;;10.77;5.97;;;10.60;99.90;;;;;;5019252;28;20272;-83
2021/01/29 11:46:32;;;;;;;14.77;5.80;;;10.60;99.90;;;;;;4997357;28;20511;-83
2021/01/29 11:49:12;;;;;;;20.40;7.03;;;10.60;99.90;;;;;;5011616;28;20841;-86
2021/01/29 11:51:46;;;;;;;18.00;5.93;;;10.50;99.90;;;;;;5011996;28;20455;-84
2021/01/29 11:54:49;;;;;;;15.57;5.27;;;10.50;99.90;;;;;;5012080;28;20429;-85
2021/01/29 11:57:33;;;;;;;31.67;6.67;;;10.40;99.90;;;;;;5008826;28;20437;-85
2021/01/29 12:00:12;;;;;;;27.70;7.20;;;10.30;99.90;;;;;;5005582;28;20455;-84
2021/01/29 12:03:21;;;;;;;21.60;5.70;;;10.20;99.90;;;;;;5021645;28;20774;-85
2021/01/29 12:06:20;;;;;;;17.93;5.70;;;10.10;99.90;;;;;;5012510;28;20432;-81
2021/01/29 12:09:04;;;;;;;21.83;5.30;;;10.10;99.90;;;;;;5010825;28;20761;-81
2021/01/29 12:11:50;;;;;;;22.77;6.33;;;10.10;99.90;;;;;;5017613;28;20550;-81
2021/01/29 12:14:58;;;;;;;16.63;4.50;;;10.10;99.90;;;;;;5019809;28;20472;-82
2021/01/29 12:17:30;;;;;;;19.77;5.23;;;10.10;99.90;;;;;;5009248;28;20510;-81
2021/01/29 12:20:04;;;;;;;17.60;5.47;;;10.10;99.90;;;;;;5022685;28;20459;-82
2021/01/29 12:22:58;;;;;;;17.63;4.80;;;10.20;99.90;;;;;;5003052;28;20440;-82
2021/01/29 12:25:42;;;;;;;20.07;5.47;;;10.30;99.90;;;;;;5011837;28;20438;-82
2021/01/29 12:28:30;;;;;;;15.47;5.17;;;10.40;99.90;;;;;;5007915;28;20432;-82
2021/01/29 12:31:16;;;;;;;16.47;5.60;;;10.50;99.90;;;;;;4993414;28;20469;-83
2021/01/29 12:34:02;;;;;;;17.43;5.23;;;10.60;99.90;;;;;;4986935;28;20467;-83
2021/01/29 12:36:37;;;;;;;14.53;4.63;;;10.60;99.90;;;;;;5006209;28;20445;-83
2021/01/29 12:39:26;;;;;;;22.80;4.50;;;10.70;99.90;;;;;;4984342;28;20449;-85
2021/01/29 12:42:03;;;;;;;15.90;4.97;;;10.80;99.90;;;;;;5003233;28;20432;-82
2021/01/29 12:44:39;;;;;;;16.00;4.87;;;10.90;99.90;;;;;;4982825;28;20441;-84
2021/01/29 12:47:43;;;;;;;13.27;4.70;;;11.00;99.90;;;;;;4986398;28;20480;-83
2021/01/29 12:50:31;;;;;;;17.63;5.10;;;11.00;99.90;;;;;;5013661;28;20540;-82
2021/01/29 12:53:03;;;;;;;14.40;5.07;;;11.00;99.90;;;;;;4995520;28;20436;-83
2021/01/29 12:55:45;;;;;;;16.33;4.13;;;11.10;99.90;;;;;;5006488;28;20483;-83
2021/01/29 12:58:14;;;;;;;20.67;5.37;;;11.10;99.90;;;;;;4999259;28;20456;-83
2021/01/29 13:00:41;;;;;;;14.77;4.23;;;11.10;99.90;;;;;;5013338;28;20448;-83
2021/01/29 13:03:40;;;;;;;15.00;4.40;;;11.10;99.90;;;;;;4999039;28;20472;-83
2021/01/29 13:06:44;;;;;;;23.20;4.57;;;11.00;99.90;;;;;;5000437;28;20457;-84
2021/01/29 13:09:37;;;;;;;11.57;3.53;;;11.10;99.90;;;;;;4987878;28;20437;-85
2021/01/29 13:12:29;;;;;;;13.33;4.20;;;11.10;99.90;;;;;;4984605;28;20468;-83
2021/01/29 13:15:23;;;;;;;13.50;4.13;;;11.00;99.90;;;;;;5004194;28;20440;-83
2021/01/29 13:18:05;;;;;;;12.60;3.40;;;10.90;99.90;;;;;;4988802;28;20435;-84
2021/01/29 13:20:37;;;;;;;7.93;3.00;;;10.80;99.90;;;;;;4991713;28;20480;-85
2021/01/29 13:23:34;;;;;;;10.23;3.23;;;10.80;99.90;;;;;;4971520;28;20449;-83
2021/01/29 13:26:24;;;;;;;8.80;3.40;;;10.80;99.90;;;;;;5012375;28;20921;-85
2021/01/29 13:29:04;;;;;;;8.33;3.73;;;10.70;99.90;;;;;;5010096;28;20454;-84
2021/01/29 13:31:36;;;;;;;8.83;3.77;;;10.60;99.90;;;;;;4998551;28;20484;-84
2021/01/29 13:34:19;;;;;;;8.93;3.50;;;10.70;99.90;;;;;;4990610;28;20440;-84
2021/01/29 13:37:00;;;;;;;13.63;3.93;;;10.80;99.90;;;;;;5000954;28;20432;-83
2021/01/29 13:39:36;;;;;;;14.90;3.77;;;10.80;99.90;;;;;;5014818;28;20435;-84
2021/01/29 13:42:18;;;;;;;11.40;3.40;;;10.80;99.90;;;;;;5011945;28;20440;-83
2021/01/29 13:45:23;;;;;;;13.50;3.90;;;10.90;99.90;;;;;;5012324;28;20433;-82
2021/01/29 13:48:03;;;;;;;17.80;3.83;;;11.00;99.90;;;;;;5012640;28;20949;-81
2021/01/29 13:50:41;;;;;;;15.87;4.43;;;11.00;99.90;;;;;;5034127;28;20888;-82
2021/01/29 13:53:32;;;;;;;12.53;4.70;;;11.10;99.90;;;;;;5030583;28;20433;-81
2021/01/29 13:56:33;;;;;;;12.37;5.63;;;11.30;99.90;;;;;;5017039;28;20449;-81
2021/01/29 13:59:18;;;;;;;14.30;4.27;;;11.50;99.90;;;;;;5018645;28;20440;-81
2021/01/29 14:01:59;;;;;;;18.77;4.77;;;11.60;99.90;;;;;;5010456;28;20471;-81
2021/01/29 14:04:36;;;;;;;10.80;4.17;;;11.80;99.90;;;;;;5025358;28;20432;-81
2021/01/29 14:07:02;;;;;;;9.00;4.53;;;11.90;99.90;;;;;;5006871;28;20440;-81
2021/01/29 14:09:28;;;;;;;10.43;4.37;;;12.00;99.90;;;;;;5024963;28;20498;-81
2021/01/29 14:12:16;;;;;;;15.67;4.67;;;12.00;99.90;;;;;;4985270;28;20475;-83
2021/01/29 14:15:14;;;;;;;13.40;6.30;;;11.90;99.90;;;;;;5001010;28;20782;-83
2021/01/29 14:17:53;;;;;;;9.80;5.17;;;11.90;99.90;;;;;;4974087;28;20428;-84
2021/01/29 14:20:34;;;;;;;15.53;5.33;;;11.70;99.90;;;;;;5000359;28;20803;-82
2021/01/29 14:23:26;;;;;;;14.50;4.27;;;11.50;99.90;;;;;;5005857;28;20435;-81
2021/01/29 14:25:57;;;;;;;12.67;4.83;;;11.40;99.90;;;;;;4987239;28;20904;-82